sensor_id;sensor_type;location;lat;lon;timestamp;P1;durP1;ratioP1;P2;durP2;ratioP2
757;SDS011;363;48.764;9.172;2023-07-24T00:00:14;8.00;;;6.40;;
757;SDS011;363;48.764;9.172;2023-07-24T00:02:40;6.35;;;5.72;;
757;SDS011;363;48.764;9.172;2023-07-24T00:05:05;8.57;;;6.30;;
757;SDS011;363;48.764;9.172;2023-07-24T00:07:31;8.10;;;6.90;;
757;SDS011;363;48.764;9.172;2023-07-24T00:09:57;9.13;;;6.90;;
757;SDS011;363;48.764;9.172;2023-07-24T00:12:22;7.73;;;6.70;;
757;SDS011;363;48.764;9.172;2023-07-24T00:14:48;7.60;;;6.80;;
757;SDS011;363;48.764;9.172;2023-07-24T00:17:14;9.43;;;6.80;;
757;SDS011;363;48.764;9.172;2023-07-24T00:19:39;7.40;;;6.43;;
757;SDS011;363;48.764;9.172;2023-07-24T00:22:05;9.43;;;7.40;;
757;SDS011;363;48.764;9.172;2023-07-24T00:24:31;8.17;;;7.00;;
757;SDS011;363;48.764;9.172;2023-07-24T00:26:56;7.05;;;6.35;;
757;SDS011;363;48.764;9.172;2023-07-24T00:29:22;7.93;;;6.43;;
757;SDS011;363;48.764;9.172;2023-07-24T00:31:48;8.43;;;6.70;;
757;SDS011;363;48.764;9.172;2023-07-24T00:34:14;8.25;;;7.05;;
757;SDS011;363;48.764;9.172;2023-07-24T00:36:40;8.60;;;6.50;;
757;SDS011;363;48.764;9.172;2023-07-24T00:39:05;9.67;;;7.23;;
757;SDS011;363;48.764;9.172;2023-07-24T00:41:31;7.40;;;6.60;;
757;SDS011;363;48.764;9.172;2023-07-24T00:43:57;7.27;;;6.40;;
757;SDS011;363;48.764;9.172;2023-07-24T00:46:23;8.80;;;6.20;;
757;SDS011;363;48.764;9.172;2023-07-24T00:48:49;7.25;;;6.55;;
757;SDS011;363;48.764;9.172;2023-07-24T00:51:16;7.93;;;7.03;;
757;SDS011;363;48.764;9.172;2023-07-24T00:53:42;7.03;;;6.33;;
757;SDS011;363;48.764;9.172;2023-07-24T00:56:08;7.90;;;6.90;;
757;SDS011;363;48.764;9.172;2023-07-24T00:58:35;7.80;;;6.65;;
757;SDS011;363;48.764;9.172;2023-07-24T01:01:02;8.52;;;6.90;;
757;SDS011;363;48.764;9.172;2023-07-24T01:03:32;9.48;;;6.13;;
757;SDS011;363;48.764;9.172;2023-07-24T01:06:00;7.78;;;6.68;;
757;SDS011;363;48.764;9.172;2023-07-24T01:08:27;7.70;;;6.57;;
757;SDS011;363;48.764;9.172;2023-07-24T01:10:52;10.77;;;6.53;;
757;SDS011;363;48.764;9.172;2023-07-24T01:13:19;8.45;;;7.20;;
757;SDS011;363;48.764;9.172;2023-07-24T01:15:56;7.50;;;6.35;;
757;SDS011;363;48.764;9.172;2023-07-24T01:18:29;11.32;;;6.40;;
757;SDS011;363;48.764;9.172;2023-07-24T01:20:56;7.90;;;7.10;;
757;SDS011;363;48.764;9.172;2023-07-24T01:25:57;6.88;;;6.15;;
757;SDS011;363;48.764;9.172;2023-07-24T01:28:27;7.47;;;6.22;;
757;SDS011;363;48.764;9.172;2023-07-24T01:30:53;8.38;;;6.88;;
757;SDS011;363;48.764;9.172;2023-07-24T01:33:19;7.97;;;6.97;;
757;SDS011;363;48.764;9.172;2023-07-24T01:35:45;7.93;;;6.63;;
757;SDS011;363;48.764;9.172;2023-07-24T01:38:15;7.20;;;5.75;;
757;SDS011;363;48.764;9.172;2023-07-24T01:40:41;7.40;;;6.30;;
757;SDS011;363;48.764;9.172;2023-07-24T01:43:08;8.85;;;7.40;;
757;SDS011;363;48.764;9.172;2023-07-24T01:45:34;6.57;;;5.88;;
757;SDS011;363;48.764;9.172;2023-07-24T01:48:01;8.45;;;6.93;;
757;SDS011;363;48.764;9.172;2023-07-24T01:50:28;8.05;;;6.05;;
757;SDS011;363;48.764;9.172;2023-07-24T01:52:54;6.80;;;6.10;;
757;SDS011;363;48.764;9.172;2023-07-24T01:55:20;7.97;;;6.37;;
757;SDS011;363;48.764;9.172;2023-07-24T01:57:45;7.00;;;5.67;;
757;SDS011;363;48.764;9.172;2023-07-24T02:00:11;6.80;;;6.00;;
757;SDS011;363;48.764;9.172;2023-07-24T02:02:37;7.78;;;6.03;;
757;SDS011;363;48.764;9.172;2023-07-24T02:05:02;6.37;;;5.77;;
757;SDS011;363;48.764;9.172;2023-07-24T02:07:28;9.87;;;7.10;;
757;SDS011;363;48.764;9.172;2023-07-24T02:09:54;8.00;;;6.70;;
757;SDS011;363;48.764;9.172;2023-07-24T02:12:19;6.83;;;6.13;;
757;SDS011;363;48.764;9.172;2023-07-24T02:14:45;7.00;;;6.30;;
757;SDS011;363;48.764;9.172;2023-07-24T02:17:14;6.72;;;5.97;;
757;SDS011;363;48.764;9.172;2023-07-24T02:19:40;8.05;;;6.43;;
757;SDS011;363;48.764;9.172;2023-07-24T02:22:06;7.97;;;6.87;;
757;SDS011;363;48.764;9.172;2023-07-24T02:24:31;6.90;;;5.83;;
757;SDS011;363;48.764;9.172;2023-07-24T02:26:57;8.53;;;7.00;;
757;SDS011;363;48.764;9.172;2023-07-24T02:29:23;7.93;;;6.10;;
757;SDS011;363;48.764;9.172;2023-07-24T02:31:49;8.60;;;7.43;;
757;SDS011;363;48.764;9.172;2023-07-24T02:34:15;7.88;;;6.10;;
757;SDS011;363;48.764;9.172;2023-07-24T02:36:40;7.30;;;6.37;;
757;SDS011;363;48.764;9.172;2023-07-24T02:39:06;8.23;;;6.50;;
757;SDS011;363;48.764;9.172;2023-07-24T02:41:32;8.75;;;7.18;;
757;SDS011;363;48.764;9.172;2023-07-24T02:43:58;9.10;;;6.80;;
757;SDS011;363;48.764;9.172;2023-07-24T02:46:24;7.33;;;6.20;;
757;SDS011;363;48.764;9.172;2023-07-24T02:48:50;7.50;;;6.33;;
757;SDS011;363;48.764;9.172;2023-07-24T02:51:16;9.80;;;6.10;;
757;SDS011;363;48.764;9.172;2023-07-24T02:53:42;10.40;;;6.40;;
757;SDS011;363;48.764;9.172;2023-07-24T02:56:07;7.00;;;6.30;;
757;SDS011;363;48.764;9.172;2023-07-24T02:58:33;8.67;;;6.73;;
757;SDS011;363;48.764;9.172;2023-07-24T03:01:05;11.10;;;8.07;;
757;SDS011;363;48.764;9.172;2023-07-24T03:03:32;8.70;;;7.05;;
757;SDS011;363;48.764;9.172;2023-07-24T03:05:58;7.38;;;6.47;;
757;SDS011;363;48.764;9.172;2023-07-24T03:08:23;10.47;;;7.10;;
757;SDS011;363;48.764;9.172;2023-07-24T03:10:49;7.77;;;6.77;;
757;SDS011;363;48.764;9.172;2023-07-24T03:13:14;8.47;;;7.03;;
757;SDS011;363;48.764;9.172;2023-07-24T03:15:40;8.10;;;6.47;;
757;SDS011;363;48.764;9.172;2023-07-24T03:18:05;7.90;;;6.60;;
757;SDS011;363;48.764;9.172;2023-07-24T03:20:31;8.97;;;6.37;;
757;SDS011;363;48.764;9.172;2023-07-24T03:22:57;8.03;;;6.80;;
757;SDS011;363;48.764;9.172;2023-07-24T03:25:22;7.70;;;6.57;;
757;SDS011;363;48.764;9.172;2023-07-24T03:27:48;8.80;;;6.93;;
757;SDS011;363;48.764;9.172;2023-07-24T03:30:14;9.23;;;6.80;;
757;SDS011;363;48.764;9.172;2023-07-24T03:32:40;6.97;;;6.13;;
757;SDS011;363;48.764;9.172;2023-07-24T03:35:05;6.83;;;6.10;;
757;SDS011;363;48.764;9.172;2023-07-24T03:37:32;8.30;;;6.65;;
757;SDS011;363;48.764;9.172;2023-07-24T03:39:59;8.18;;;6.47;;
757;SDS011;363;48.764;9.172;2023-07-24T03:42:25;7.83;;;6.83;;
757;SDS011;363;48.764;9.172;2023-07-24T03:44:52;7.63;;;6.75;;
757;SDS011;363;48.764;9.172;2023-07-24T03:47:18;7.30;;;6.25;;
757;SDS011;363;48.764;9.172;2023-07-24T03:49:43;7.90;;;6.67;;
757;SDS011;363;48.764;9.172;2023-07-24T03:52:09;9.57;;;6.70;;
757;SDS011;363;48.764;9.172;2023-07-24T03:54:34;8.07;;;6.83;;
757;SDS011;363;48.764;9.172;2023-07-24T03:57:00;7.03;;;6.33;;
757;SDS011;363;48.764;9.172;2023-07-24T03:59:26;11.10;;;7.10;;
757;SDS011;363;48.764;9.172;2023-07-24T04:01:51;8.23;;;6.23;;
757;SDS011;363;48.764;9.172;2023-07-24T04:04:17;7.67;;;6.33;;
757;SDS011;363;48.764;9.172;2023-07-24T04:06:42;9.23;;;6.70;;
757;SDS011;363;48.764;9.172;2023-07-24T04:09:08;8.17;;;6.80;;
757;SDS011;363;48.764;9.172;2023-07-24T04:11:35;7.53;;;6.72;;
757;SDS011;363;48.764;9.172;2023-07-24T04:14:03;10.80;;;6.85;;
757;SDS011;363;48.764;9.172;2023-07-24T04:16:28;8.80;;;6.50;;
757;SDS011;363;48.764;9.172;2023-07-24T04:18:54;8.53;;;6.70;;
757;SDS011;363;48.764;9.172;2023-07-24T04:21:19;8.77;;;7.03;;
757;SDS011;363;48.764;9.172;2023-07-24T04:23:45;7.30;;;6.60;;
757;SDS011;363;48.764;9.172;2023-07-24T04:26:11;8.23;;;6.43;;
757;SDS011;363;48.764;9.172;2023-07-24T04:28:36;7.20;;;6.50;;
757;SDS011;363;48.764;9.172;2023-07-24T04:31:02;8.07;;;7.27;;
757;SDS011;363;48.764;9.172;2023-07-24T04:33:27;8.80;;;7.00;;
757;SDS011;363;48.764;9.172;2023-07-24T04:35:56;6.97;;;6.27;;
757;SDS011;363;48.764;9.172;2023-07-24T04:38:22;8.60;;;7.28;;
757;SDS011;363;48.764;9.172;2023-07-24T04:40:48;7.70;;;6.65;;
757;SDS011;363;48.764;9.172;2023-07-24T04:43:13;7.13;;;6.10;;
757;SDS011;363;48.764;9.172;2023-07-24T04:45:39;8.50;;;6.73;;
757;SDS011;363;48.764;9.172;2023-07-24T04:48:05;6.80;;;6.20;;
757;SDS011;363;48.764;9.172;2023-07-24T04:50:30;8.47;;;6.97;;
757;SDS011;363;48.764;9.172;2023-07-24T04:52:56;7.10;;;6.03;;
757;SDS011;363;48.764;9.172;2023-07-24T04:55:22;7.20;;;6.50;;
757;SDS011;363;48.764;9.172;2023-07-24T04:57:47;8.07;;;7.27;;
757;SDS011;363;48.764;9.172;2023-07-24T05:00:13;6.63;;;6.00;;
757;SDS011;363;48.764;9.172;2023-07-24T05:02:39;9.50;;;6.60;;
757;SDS011;363;48.764;9.172;2023-07-24T05:05:05;7.90;;;6.70;;
757;SDS011;363;48.764;9.172;2023-07-24T05:07:31;8.20;;;6.10;;
757;SDS011;363;48.764;9.172;2023-07-24T05:09:57;7.33;;;6.50;;
757;SDS011;363;48.764;9.172;2023-07-24T05:12:22;8.57;;;6.83;;
757;SDS011;363;48.764;9.172;2023-07-24T05:14:48;6.93;;;6.23;;
757;SDS011;363;48.764;9.172;2023-07-24T05:17:14;8.33;;;6.23;;
757;SDS011;363;48.764;9.172;2023-07-24T05:19:39;8.17;;;6.70;;
757;SDS011;363;48.764;9.172;2023-07-24T05:22:05;7.80;;;6.83;;
757;SDS011;363;48.764;9.172;2023-07-24T05:24:31;8.27;;;6.50;;
757;SDS011;363;48.764;9.172;2023-07-24T05:26:56;8.83;;;7.57;;
757;SDS011;363;48.764;9.172;2023-07-24T05:29:22;7.70;;;6.87;;
757;SDS011;363;48.764;9.172;2023-07-24T05:31:47;8.50;;;7.50;;
757;SDS011;363;48.764;9.172;2023-07-24T05:34:13;7.30;;;6.50;;
757;SDS011;363;48.764;9.172;2023-07-24T05:36:40;8.53;;;6.53;;
757;SDS011;363;48.764;9.172;2023-07-24T05:39:06;8.13;;;6.80;;
757;SDS011;363;48.764;9.172;2023-07-24T05:41:32;9.23;;;6.93;;
757;SDS011;363;48.764;9.172;2023-07-24T05:43:57;8.70;;;6.20;;
757;SDS011;363;48.764;9.172;2023-07-24T05:46:23;8.27;;;6.77;;
757;SDS011;363;48.764;9.172;2023-07-24T05:48:48;8.97;;;7.50;;
757;SDS011;363;48.764;9.172;2023-07-24T05:51:14;8.00;;;7.17;;
757;SDS011;363;48.764;9.172;2023-07-24T05:53:40;8.53;;;6.73;;
757;SDS011;363;48.764;9.172;2023-07-24T05:56:05;8.50;;;7.60;;
757;SDS011;363;48.764;9.172;2023-07-24T05:58:31;10.50;;;6.63;;
757;SDS011;363;48.764;9.172;2023-07-24T06:00:57;8.00;;;7.13;;
757;SDS011;363;48.764;9.172;2023-07-24T06:03:23;8.83;;;6.33;;
757;SDS011;363;48.764;9.172;2023-07-24T06:05:54;9.02;;;6.85;;
757;SDS011;363;48.764;9.172;2023-07-24T06:08:21;8.18;;;6.40;;
757;SDS011;363;48.764;9.172;2023-07-24T06:10:47;7.53;;;6.40;;
757;SDS011;363;48.764;9.172;2023-07-24T06:13:14;9.25;;;7.40;;
757;SDS011;363;48.764;9.172;2023-07-24T06:15:40;9.20;;;8.00;;
757;SDS011;363;48.764;9.172;2023-07-24T06:18:06;9.57;;;7.20;;
757;SDS011;363;48.764;9.172;2023-07-24T06:20:31;11.40;;;7.17;;
757;SDS011;363;48.764;9.172;2023-07-24T06:22:57;8.57;;;7.53;;
757;SDS011;363;48.764;9.172;2023-07-24T06:25:22;8.40;;;7.03;;
757;SDS011;363;48.764;9.172;2023-07-24T06:27:48;8.40;;;6.40;;
757;SDS011;363;48.764;9.172;2023-07-24T06:30:14;7.53;;;6.60;;
757;SDS011;363;48.764;9.172;2023-07-24T06:32:39;8.73;;;7.47;;
757;SDS011;363;48.764;9.172;2023-07-24T06:35:05;8.37;;;7.57;;
757;SDS011;363;48.764;9.172;2023-07-24T06:37:31;11.37;;;6.27;;
757;SDS011;363;48.764;9.172;2023-07-24T06:39:56;8.97;;;6.93;;
757;SDS011;363;48.764;9.172;2023-07-24T06:42:22;8.90;;;7.60;;
757;SDS011;363;48.764;9.172;2023-07-24T06:44:47;8.73;;;7.00;;
757;SDS011;363;48.764;9.172;2023-07-24T06:47:13;10.73;;;7.87;;
757;SDS011;363;48.764;9.172;2023-07-24T06:49:39;8.57;;;7.23;;
757;SDS011;363;48.764;9.172;2023-07-24T06:52:04;10.57;;;7.27;;
757;SDS011;363;48.764;9.172;2023-07-24T06:54:30;7.50;;;6.70;;
757;SDS011;363;48.764;9.172;2023-07-24T06:56:56;9.20;;;8.10;;
757;SDS011;363;48.764;9.172;2023-07-24T06:59:21;9.10;;;8.17;;
757;SDS011;363;48.764;9.172;2023-07-24T07:01:48;9.50;;;7.13;;
757;SDS011;363;48.764;9.172;2023-07-24T07:04:13;8.60;;;6.90;;
757;SDS011;363;48.764;9.172;2023-07-24T07:06:39;7.83;;;7.07;;
757;SDS011;363;48.764;9.172;2023-07-24T07:09:04;8.03;;;6.83;;
757;SDS011;363;48.764;9.172;2023-07-24T07:11:31;9.13;;;7.10;;
757;SDS011;363;48.764;9.172;2023-07-24T07:13:57;7.70;;;7.00;;
757;SDS011;363;48.764;9.172;2023-07-24T07:16:22;9.73;;;8.07;;
757;SDS011;363;48.764;9.172;2023-07-24T07:18:48;7.60;;;6.67;;
757;SDS011;363;48.764;9.172;2023-07-24T07:21:13;13.53;;;8.00;;
757;SDS011;363;48.764;9.172;2023-07-24T07:23:39;8.97;;;7.33;;
757;SDS011;363;48.764;9.172;2023-07-24T07:26:05;12.23;;;8.43;;
757;SDS011;363;48.764;9.172;2023-07-24T07:28:30;7.87;;;7.07;;
757;SDS011;363;48.764;9.172;2023-07-24T07:30:56;10.60;;;8.50;;
757;SDS011;363;48.764;9.172;2023-07-24T07:33:22;8.03;;;7.23;;
757;SDS011;363;48.764;9.172;2023-07-24T07:35:49;8.63;;;6.90;;
757;SDS011;363;48.764;9.172;2023-07-24T07:38:15;14.70;;;8.10;;
757;SDS011;363;48.764;9.172;2023-07-24T07:40:40;9.07;;;7.37;;
757;SDS011;363;48.764;9.172;2023-07-24T07:43:06;10.60;;;6.97;;
757;SDS011;363;48.764;9.172;2023-07-24T07:45:32;9.37;;;7.50;;
757;SDS011;363;48.764;9.172;2023-07-24T07:47:58;8.53;;;7.20;;
757;SDS011;363;48.764;9.172;2023-07-24T07:50:23;8.60;;;7.70;;
757;SDS011;363;48.764;9.172;2023-07-24T07:52:49;8.60;;;7.80;;
757;SDS011;363;48.764;9.172;2023-07-24T07:55:16;8.70;;;7.10;;
757;SDS011;363;48.764;9.172;2023-07-24T07:57:42;9.23;;;7.80;;
757;SDS011;363;48.764;9.172;2023-07-24T08:00:08;8.70;;;7.67;;
757;SDS011;363;48.764;9.172;2023-07-24T08:02:34;10.50;;;7.80;;
757;SDS011;363;48.764;9.172;2023-07-24T08:05:00;9.10;;;7.80;;
757;SDS011;363;48.764;9.172;2023-07-24T08:07:25;7.97;;;7.10;;
757;SDS011;363;48.764;9.172;2023-07-24T08:09:51;8.90;;;7.70;;
757;SDS011;363;48.764;9.172;2023-07-24T08:12:17;8.00;;;7.20;;
757;SDS011;363;48.764;9.172;2023-07-24T08:14:42;8.37;;;7.47;;
757;SDS011;363;48.764;9.172;2023-07-24T08:17:08;10.43;;;8.43;;
757;SDS011;363;48.764;9.172;2023-07-24T08:19:33;9.40;;;8.33;;
757;SDS011;363;48.764;9.172;2023-07-24T08:21:59;9.73;;;8.60;;
757;SDS011;363;48.764;9.172;2023-07-24T08:24:25;9.90;;;8.67;;
757;SDS011;363;48.764;9.172;2023-07-24T08:26:50;11.27;;;8.57;;
757;SDS011;363;48.764;9.172;2023-07-24T08:29:16;8.57;;;7.47;;
757;SDS011;363;48.764;9.172;2023-07-24T08:31:42;10.07;;;7.30;;
757;SDS011;363;48.764;9.172;2023-07-24T08:34:07;10.50;;;9.00;;
757;SDS011;363;48.764;9.172;2023-07-24T08:36:33;7.43;;;6.73;;
757;SDS011;363;48.764;9.172;2023-07-24T08:38:58;8.33;;;7.40;;
757;SDS011;363;48.764;9.172;2023-07-24T08:41:24;10.03;;;6.80;;
757;SDS011;363;48.764;9.172;2023-07-24T08:43:50;9.80;;;8.80;;
757;SDS011;363;48.764;9.172;2023-07-24T08:46:17;8.00;;;6.47;;
757;SDS011;363;48.764;9.172;2023-07-24T08:48:43;7.47;;;6.73;;
757;SDS011;363;48.764;9.172;2023-07-24T08:51:09;7.83;;;7.03;;
757;SDS011;363;48.764;9.172;2023-07-24T08:53:43;7.23;;;6.53;;
757;SDS011;363;48.764;9.172;2023-07-24T08:56:10;7.57;;;6.50;;
757;SDS011;363;48.764;9.172;2023-07-24T08:58:39;9.07;;;7.80;;
757;SDS011;363;48.764;9.172;2023-07-24T09:01:05;6.50;;;5.90;;
757;SDS011;363;48.764;9.172;2023-07-24T09:03:32;10.27;;;7.57;;
757;SDS011;363;48.764;9.172;2023-07-24T09:05:58;10.63;;;8.13;;
757;SDS011;363;48.764;9.172;2023-07-24T09:10:58;7.47;;;6.70;;
757;SDS011;363;48.764;9.172;2023-07-24T09:13:27;8.83;;;6.97;;
757;SDS011;363;48.764;9.172;2023-07-24T09:15:53;7.43;;;6.73;;
757;SDS011;363;48.764;9.172;2023-07-24T09:18:19;7.50;;;6.70;;
757;SDS011;363;48.764;9.172;2023-07-24T09:20:46;9.17;;;7.63;;
757;SDS011;363;48.764;9.172;2023-07-24T09:23:12;8.20;;;6.60;;
757;SDS011;363;48.764;9.172;2023-07-24T09:25:39;7.73;;;6.80;;
757;SDS011;363;48.764;9.172;2023-07-24T09:28:13;7.13;;;5.93;;
757;SDS011;363;48.764;9.172;2023-07-24T09:30:40;6.93;;;6.27;;
757;SDS011;363;48.764;9.172;2023-07-24T09:33:06;7.37;;;5.43;;
757;SDS011;363;48.764;9.172;2023-07-24T09:35:33;7.00;;;5.03;;
757;SDS011;363;48.764;9.172;2023-07-24T09:40:42;6.27;;;5.40;;
757;SDS011;363;48.764;9.172;2023-07-24T09:43:16;6.33;;;5.73;;
757;SDS011;363;48.764;9.172;2023-07-24T09:45:46;7.40;;;6.27;;
757;SDS011;363;48.764;9.172;2023-07-24T09:48:13;7.77;;;6.90;;
757;SDS011;363;48.764;9.172;2023-07-24T09:50:40;10.63;;;9.53;;
757;SDS011;363;48.764;9.172;2023-07-24T09:53:17;8.50;;;6.80;;
757;SDS011;363;48.764;9.172;2023-07-24T09:55:51;7.33;;;6.47;;
757;SDS011;363;48.764;9.172;2023-07-24T09:58:22;6.70;;;6.10;;
757;SDS011;363;48.764;9.172;2023-07-24T10:00:49;7.23;;;6.43;;
757;SDS011;363;48.764;9.172;2023-07-24T10:03:16;7.50;;;6.40;;
757;SDS011;363;48.764;9.172;2023-07-24T10:05:46;6.73;;;5.60;;
757;SDS011;363;48.764;9.172;2023-07-24T10:08:17;12.03;;;6.63;;
757;SDS011;363;48.764;9.172;2023-07-24T10:10:43;6.50;;;5.90;;
757;SDS011;363;48.764;9.172;2023-07-24T10:13:11;6.40;;;5.80;;
757;SDS011;363;48.764;9.172;2023-07-24T10:15:42;8.07;;;7.27;;
757;SDS011;363;48.764;9.172;2023-07-24T10:18:09;7.27;;;6.53;;
757;SDS011;363;48.764;9.172;2023-07-24T10:20:36;6.60;;;6.00;;
757;SDS011;363;48.764;9.172;2023-07-24T10:23:04;6.30;;;5.70;;
757;SDS011;363;48.764;9.172;2023-07-24T10:25:35;8.00;;;5.73;;
757;SDS011;363;48.764;9.172;2023-07-24T10:28:06;6.03;;;5.40;;
757;SDS011;363;48.764;9.172;2023-07-24T10:30:35;8.00;;;6.20;;
757;SDS011;363;48.764;9.172;2023-07-24T10:33:12;9.80;;;8.90;;
757;SDS011;363;48.764;9.172;2023-07-24T10:35:47;6.73;;;5.60;;
757;SDS011;363;48.764;9.172;2023-07-24T10:38:20;6.23;;;5.63;;
757;SDS011;363;48.764;9.172;2023-07-24T10:41:03;7.00;;;6.30;;
757;SDS011;363;48.764;9.172;2023-07-24T10:43:39;6.40;;;5.73;;
757;SDS011;363;48.764;9.172;2023-07-24T10:46:12;6.60;;;5.73;;
757;SDS011;363;48.764;9.172;2023-07-24T10:48:41;6.60;;;5.77;;
757;SDS011;363;48.764;9.172;2023-07-24T10:51:08;6.43;;;5.67;;
757;SDS011;363;48.764;9.172;2023-07-24T10:53:38;8.60;;;6.50;;
757;SDS011;363;48.764;9.172;2023-07-24T10:56:06;6.80;;;6.10;;
757;SDS011;363;48.764;9.172;2023-07-24T10:58:32;6.40;;;5.80;;
757;SDS011;363;48.764;9.172;2023-07-24T11:00:58;7.03;;;6.23;;
757;SDS011;363;48.764;9.172;2023-07-24T11:03:24;6.43;;;5.83;;
757;SDS011;363;48.764;9.172;2023-07-24T11:05:51;6.63;;;5.77;;
757;SDS011;363;48.764;9.172;2023-07-24T11:08:19;7.18;;;6.47;;
757;SDS011;363;48.764;9.172;2023-07-24T11:10:49;8.68;;;6.50;;
757;SDS011;363;48.764;9.172;2023-07-24T11:13:16;8.23;;;6.90;;
757;SDS011;363;48.764;9.172;2023-07-24T11:15:43;6.95;;;6.25;;
757;SDS011;363;48.764;9.172;2023-07-24T11:18:09;8.27;;;6.45;;
757;SDS011;363;48.764;9.172;2023-07-24T11:20:46;9.23;;;7.13;;
757;SDS011;363;48.764;9.172;2023-07-24T11:23:13;7.95;;;5.95;;
757;SDS011;363;48.764;9.172;2023-07-24T11:25:40;7.07;;;5.82;;
757;SDS011;363;48.764;9.172;2023-07-24T11:28:06;6.03;;;5.50;;
757;SDS011;363;48.764;9.172;2023-07-24T11:30:33;7.75;;;6.93;;
757;SDS011;363;48.764;9.172;2023-07-24T11:33:00;6.77;;;5.90;;
757;SDS011;363;48.764;9.172;2023-07-24T11:35:27;8.52;;;6.45;;
757;SDS011;363;48.764;9.172;2023-07-24T11:37:52;7.90;;;6.60;;
757;SDS011;363;48.764;9.172;2023-07-24T11:40:18;7.87;;;7.03;;
757;SDS011;363;48.764;9.172;2023-07-24T11:42:46;7.57;;;6.30;;
757;SDS011;363;48.764;9.172;2023-07-24T11:45:13;6.50;;;5.57;;
757;SDS011;363;48.764;9.172;2023-07-24T11:47:45;6.60;;;5.50;;
757;SDS011;363;48.764;9.172;2023-07-24T11:50:14;8.53;;;5.60;;
757;SDS011;363;48.764;9.172;2023-07-24T11:52:45;6.93;;;5.83;;
757;SDS011;363;48.764;9.172;2023-07-24T11:55:16;5.83;;;5.23;;
757;SDS011;363;48.764;9.172;2023-07-24T11:57:54;6.40;;;5.80;;
757;SDS011;363;48.764;9.172;2023-07-24T12:00:21;7.10;;;6.30;;
757;SDS011;363;48.764;9.172;2023-07-24T12:02:47;7.03;;;6.30;;
757;SDS011;363;48.764;9.172;2023-07-24T12:05:14;6.10;;;5.43;;
757;SDS011;363;48.764;9.172;2023-07-24T12:07:41;6.03;;;5.43;;
757;SDS011;363;48.764;9.172;2023-07-24T12:10:09;6.75;;;6.10;;
757;SDS011;363;48.764;9.172;2023-07-24T12:15:03;7.03;;;5.93;;
757;SDS011;363;48.764;9.172;2023-07-24T12:17:29;6.90;;;6.30;;
757;SDS011;363;48.764;9.172;2023-07-24T12:19:55;7.70;;;6.50;;
757;SDS011;363;48.764;9.172;2023-07-24T12:22:20;6.67;;;5.93;;
757;SDS011;363;48.764;9.172;2023-07-24T12:24:47;9.57;;;6.67;;
757;SDS011;363;48.764;9.172;2023-07-24T12:27:12;6.77;;;5.80;;
757;SDS011;363;48.764;9.172;2023-07-24T12:29:38;7.00;;;6.30;;
757;SDS011;363;48.764;9.172;2023-07-24T12:32:04;7.43;;;6.63;;
757;SDS011;363;48.764;9.172;2023-07-24T12:34:30;8.63;;;6.80;;
757;SDS011;363;48.764;9.172;2023-07-24T12:36:55;9.47;;;8.57;;
757;SDS011;363;48.764;9.172;2023-07-24T12:39:21;7.20;;;5.73;;
757;SDS011;363;48.764;9.172;2023-07-24T12:41:46;7.40;;;6.17;;
757;SDS011;363;48.764;9.172;2023-07-24T12:44:12;7.20;;;6.50;;
757;SDS011;363;48.764;9.172;2023-07-24T12:46:38;7.37;;;6.67;;
757;SDS011;363;48.764;9.172;2023-07-24T12:49:03;7.70;;;6.90;;
757;SDS011;363;48.764;9.172;2023-07-24T12:51:29;7.10;;;6.50;;
757;SDS011;363;48.764;9.172;2023-07-24T12:53:55;6.77;;;6.03;;
757;SDS011;363;48.764;9.172;2023-07-24T12:56:20;6.90;;;6.20;;
757;SDS011;363;48.764;9.172;2023-07-24T12:58:46;22.53;;;9.40;;
757;SDS011;363;48.764;9.172;2023-07-24T13:01:12;20.37;;;9.57;;
757;SDS011;363;48.764;9.172;2023-07-24T13:03:37;7.10;;;6.10;;
757;SDS011;363;48.764;9.172;2023-07-24T13:06:03;6.07;;;4.73;;
757;SDS011;363;48.764;9.172;2023-07-24T13:08:28;5.50;;;5.00;;
757;SDS011;363;48.764;9.172;2023-07-24T13:10:54;5.53;;;4.93;;
757;SDS011;363;48.764;9.172;2023-07-24T13:13:19;7.00;;;5.43;;
757;SDS011;363;48.764;9.172;2023-07-24T13:15:45;5.90;;;5.30;;
757;SDS011;363;48.764;9.172;2023-07-24T13:18:11;5.73;;;5.17;;
757;SDS011;363;48.764;9.172;2023-07-24T13:20:39;5.37;;;4.90;;
757;SDS011;363;48.764;9.172;2023-07-24T13:23:08;5.50;;;5.00;;
757;SDS011;363;48.764;9.172;2023-07-24T13:25:33;5.50;;;5.00;;
757;SDS011;363;48.764;9.172;2023-07-24T13:27:59;4.50;;;4.10;;
757;SDS011;363;48.764;9.172;2023-07-24T13:30:24;4.87;;;4.47;;
757;SDS011;363;48.764;9.172;2023-07-24T13:32:50;5.97;;;5.40;;
757;SDS011;363;48.764;9.172;2023-07-24T13:35:17;5.50;;;5.00;;
757;SDS011;363;48.764;9.172;2023-07-24T13:37:42;5.80;;;5.20;;
757;SDS011;363;48.764;9.172;2023-07-24T13:40:08;5.40;;;4.80;;
757;SDS011;363;48.764;9.172;2023-07-24T13:42:34;5.20;;;4.70;;
757;SDS011;363;48.764;9.172;2023-07-24T13:44:59;7.33;;;5.40;;
757;SDS011;363;48.764;9.172;2023-07-24T13:47:25;5.90;;;4.80;;
757;SDS011;363;48.764;9.172;2023-07-24T13:49:51;4.80;;;4.37;;
757;SDS011;363;48.764;9.172;2023-07-24T13:52:16;5.50;;;4.60;;
757;SDS011;363;48.764;9.172;2023-07-24T13:54:42;5.67;;;5.17;;
757;SDS011;363;48.764;9.172;2023-07-24T13:57:07;5.50;;;4.87;;
757;SDS011;363;48.764;9.172;2023-07-24T13:59:34;5.03;;;4.63;;
757;SDS011;363;48.764;9.172;2023-07-24T14:02:00;5.07;;;4.30;;
757;SDS011;363;48.764;9.172;2023-07-24T14:04:25;4.97;;;4.57;;
757;SDS011;363;48.764;9.172;2023-07-24T14:06:54;4.17;;;3.83;;
757;SDS011;363;48.764;9.172;2023-07-24T14:09:19;4.80;;;4.40;;
757;SDS011;363;48.764;9.172;2023-07-24T14:11:45;4.53;;;4.13;;
757;SDS011;363;48.764;9.172;2023-07-24T14:14:11;5.00;;;4.50;;
757;SDS011;363;48.764;9.172;2023-07-24T14:16:36;4.83;;;4.13;;
757;SDS011;363;48.764;9.172;2023-07-24T14:19:02;4.40;;;4.00;;
757;SDS011;363;48.764;9.172;2023-07-24T14:21:28;4.47;;;4.07;;
757;SDS011;363;48.764;9.172;2023-07-24T14:23:53;4.37;;;3.60;;
757;SDS011;363;48.764;9.172;2023-07-24T14:26:19;4.00;;;3.60;;
757;SDS011;363;48.764;9.172;2023-07-24T14:28:45;4.60;;;4.20;;
757;SDS011;363;48.764;9.172;2023-07-24T14:31:10;4.77;;;4.37;;
757;SDS011;363;48.764;9.172;2023-07-24T14:33:36;4.63;;;4.17;;
757;SDS011;363;48.764;9.172;2023-07-24T14:36:02;4.50;;;4.10;;
757;SDS011;363;48.764;9.172;2023-07-24T14:38:27;4.60;;;4.20;;
757;SDS011;363;48.764;9.172;2023-07-24T14:40:53;4.50;;;4.10;;
757;SDS011;363;48.764;9.172;2023-07-24T14:43:18;5.10;;;4.20;;
757;SDS011;363;48.764;9.172;2023-07-24T14:45:44;5.10;;;4.60;;
757;SDS011;363;48.764;9.172;2023-07-24T14:48:10;4.87;;;3.90;;
757;SDS011;363;48.764;9.172;2023-07-24T14:50:37;4.33;;;4.03;;
757;SDS011;363;48.764;9.172;2023-07-24T14:53:03;4.53;;;4.10;;
757;SDS011;363;48.764;9.172;2023-07-24T14:55:29;4.50;;;4.10;;
757;SDS011;363;48.764;9.172;2023-07-24T14:57:54;4.37;;;4.07;;
757;SDS011;363;48.764;9.172;2023-07-24T15:00:20;4.73;;;4.27;;
757;SDS011;363;48.764;9.172;2023-07-24T15:02:45;4.03;;;3.73;;
757;SDS011;363;48.764;9.172;2023-07-24T15:05:11;4.90;;;4.17;;
757;SDS011;363;48.764;9.172;2023-07-24T15:07:37;4.10;;;3.67;;
757;SDS011;363;48.764;9.172;2023-07-24T15:10:02;4.60;;;3.80;;
757;SDS011;363;48.764;9.172;2023-07-24T15:12:28;4.83;;;3.70;;
757;SDS011;363;48.764;9.172;2023-07-24T15:14:55;3.97;;;3.67;;
757;SDS011;363;48.764;9.172;2023-07-24T15:17:21;4.90;;;4.00;;
757;SDS011;363;48.764;9.172;2023-07-24T15:19:47;4.20;;;3.90;;
757;SDS011;363;48.764;9.172;2023-07-24T15:22:12;4.27;;;3.87;;
757;SDS011;363;48.764;9.172;2023-07-24T15:24:39;3.97;;;3.67;;
757;SDS011;363;48.764;9.172;2023-07-24T15:27:06;4.23;;;3.70;;
757;SDS011;363;48.764;9.172;2023-07-24T15:29:36;4.00;;;3.70;;
757;SDS011;363;48.764;9.172;2023-07-24T15:32:02;3.97;;;3.30;;
757;SDS011;363;48.764;9.172;2023-07-24T15:34:29;3.77;;;3.47;;
757;SDS011;363;48.764;9.172;2023-07-24T15:36:55;5.13;;;4.43;;
757;SDS011;363;48.764;9.172;2023-07-24T15:39:21;4.60;;;4.20;;
757;SDS011;363;48.764;9.172;2023-07-24T15:41:47;5.07;;;4.00;;
757;SDS011;363;48.764;9.172;2023-07-24T15:44:12;3.83;;;3.50;;
757;SDS011;363;48.764;9.172;2023-07-24T15:46:38;4.10;;;3.70;;
757;SDS011;363;48.764;9.172;2023-07-24T15:49:04;4.07;;;3.77;;